Portada
METAR-TAF:

METAR-TAF

Aeropuertos :

La Palma, España

Aeropuerto de La Palma

latitud: 28-37N, longitud: 017-45W, altitud: 29 m

Observación

El informe se hizo hace 16 minutos, a las 18:30 UTC
Viento 13 kt del norte-noreste, variando entre norte-noroeste y noreste
Temperatura 23°C
Humedad 73%
Presión 1023 hPa
Visibilidad 10 km o más
Nubes dispersas a una altura de 2800 ft

METAR: GCLA 171830Z 02013KT 340V050 9999 SCT028 23/18 Q1023

Hora: 19:46 (18:46 UTC)

Pronóstico

El informe se hizo hace 4 horas y 46 minutos, a las 14:00 UTC
Pronóstico válido del 17 a las 15 UTC al 18 a las 15 UTC
Viento 9 kt del norte-noreste
Visibilidad 10 km o más
Nubes dispersas a una altura de 2500 ft

TAF: GCLA 171400Z 1715/1815 02009KT 9999 SCT025 TX26/1813Z TN21/1806Z

Observaciones y pronósticos meteorológicos de más de 4000 aeropuertos (mensajes METAR y TAF).

Los puntos amarillos y rojos representan las estaciones disponibles.

Ponga el ratón en el punto deseado para ver el nombre de la estación.

Haga clic para ver las observaciones y los pronósticos meteorológicos.

Para cambiar el mapa : haga clic en los botones verdes con una cruz de color negro para hacer un zoom, en el botón verde con un guión para alejar o en las flechas verdes para mapas adyacentes.


METAR-TAF: